Flight Track Log - Related Links

Times and Time Zones

All times are in EDT time to prevent confusion due to time zone crossing. See the SWA975 flight status page for this flight to view local times or setup timezone preferences in your user account.

Time Position Orientation Groundspeed Altitude Reporting Facility
EDT Latitude Longitude Course Direction KTS MPH feet Rate Location/Type
Sat 04:33:42 PM 38.1808 -85.7808 281° West 172 198 2,700  Level FAA TRACON SMA TRACON (SMA)
Sat 04:34:02 PM 38.1803 -85.8094 269° West 207 238 4,200 4,650 Climbing FAA TRACON SMA TRACON (SMA)
Sat 04:34:22 PM 38.1797 -85.8331 268° West 216 249 5,800 4,500 Climbing FAA TRACON SMA TRACON (SMA)
Sat 04:34:42 PM 38.1792 -85.8575 268° West 223 257 7,200 4,000 Climbing FAA TRACON SMA TRACON (SMA)
Sat 04:35:01 PM 38.1789 -85.8836 269° West 235 270 8,400 4,200 Climbing FAA TRACON SMA TRACON (SMA)
Sat 04:35:22 PM 38.1717 -85.9169 255° West 257 296 10,000 3,951 Climbing FAA TRACON SMA TRACON (SMA)
Sat 04:35:42 PM 38.1597 -85.9425 239° Southwest 271 312 11,100 2,850 Climbing FAA TRACON SMA TRACON (SMA)
Sat 04:36:02 PM 38.1431 -85.9769 238° Southwest 295 339 11,900 3,150 Climbing FAA TRACON SMA TRACON (SMA)
Sat 04:36:22 PM 38.1308 -86.0081 243° Southwest 316 364 13,200 3,875 Climbing FAA TRACON SMA TRACON (SMA)
Sat 04:36:50 PM 38.1228 -86.0592 259° West 322 371 15,000 4,041 Climbing FAA TRACON SMA TRACON (SMA)
Sat 04:37:11 PM 38.1183 -86.1031 263° West 325 374 16,500 3,462 Climbing FAA TRACON SMA TRACON (SMA)
Sat 04:37:42 PM 38.1125 -86.1569 262° West 334 384 18,000 3,765 Climbing FAA TRACON SMA TRACON (SMA)
Sat 04:38:02 PM 38.1075 -86.2028 262° West 339 390 19,700 4,350 Climbing FAA TRACON SMA TRACON (SMA)
Sat 04:38:22 PM 38.1036 -86.2392 262° West 339 390 20,900 3,300 Climbing FAA TRACON SMA TRACON (SMA)
Sat 04:38:42 PM 38.1000 -86.2758 263° West 341 392 21,900 3,077 Climbing FAA TRACON SMA TRACON (SMA)
Sat 04:39:01 PM 38.0953 -86.3131 261° West 345 397 22,900 3,150 Climbing FAA TRACON SMA TRACON (SMA)
Sat 04:39:22 PM 38.0903 -86.3611 262° West 354 407 24,000 2,927 Climbing FAA TRACON SMA TRACON (SMA)
Sat 04:39:42 PM 38.0869 -86.4000 264° West 359 413 24,900 3,000 Climbing FAA TRACON SMA TRACON (SMA)
Sat 04:40:02 PM 38.0806 -86.4489 261° West 364 419 26,000 3,600 Climbing FAA TRACON SMA TRACON (SMA)
Sat 04:40:22 PM 38.0769 -86.4878 263° West 365 420 27,300 3,900 Climbing FAA TRACON SMA TRACON (SMA)
Sat 04:40:42 PM 38.0733 -86.5261 263° West 358 412 28,600 3,600 Climbing FAA TRACON SMA TRACON (SMA)
Sat 04:41:02 PM 38.0678 -86.5731 261° West 349 402 29,700 2,100 Climbing FAA TRACON SMA TRACON (SMA)
Sat 04:41:22 PM 38.0639 -86.6100 262° West 346 398 30,000 450 Climbing FAA TRACON SMA TRACON (SMA)
Sat 04:41:42 PM 38.0597 -86.6483 262° West 351 404 30,000  Level FAA TRACON SMA TRACON (SMA)
Sat 04:42:02 PM 38.0542 -86.6972 262° West 362 417 30,000  Level FAA TRACON SMA TRACON (SMA)
Sat 04:42:22 PM 38.0500 -86.7369 262° West 368 423 30,000  Level FAA TRACON SMA TRACON (SMA)
Sat 04:42:42 PM 38.0461 -86.7764 263° West 370 426 30,000  Level FAA TRACON SMA TRACON (SMA)
Sat 04:43:02 PM 38.0406 -86.8258 262° West 368 423 30,000  Level FAA TRACON SMA TRACON (SMA)
Sat 04:43:22 PM 38.0369 -86.8658 263° West 370 426 30,000  Level FAA TRACON SMA TRACON (SMA)
Sat 04:43:42 PM 38.0331 -86.9058 263° West 371 427 30,000  Level FAA TRACON SMA TRACON (SMA)
Sat 04:44:02 PM 38.0267 -86.9553 261° West 371 427 30,000  Level FAA TRACON SMA TRACON (SMA)
Sat 04:44:22 PM 38.0256 -86.9753 266° West 370 426 30,000  Level FAA TRACON SMA TRACON (SMA)
Sat 04:45:34 PM 38.0031 -87.1331 260° West 373 429 30,000  Level Indianapolis Center
Sat 04:46:35 PM 37.9878 -87.2644 262° West 373 429 30,000  Level Indianapolis Center
Sat 04:47:36 PM 37.9719 -87.3967 261° West 374 430 30,000  Level Indianapolis Center
Sat 04:48:38 PM 37.9564 -87.5286 262° West 375 432 30,000  Level Indianapolis Center
Sat 04:49:39 PM 37.9408 -87.6614 262° West 378 435 30,000  Level Indianapolis Center
Sat 04:50:40 PM 37.9239 -87.7936 261° West 378 435 30,000  Level Indianapolis Center
Sat 04:51:42 PM 37.9056 -87.9242 260° West 377 434 30,000  Level Indianapolis Center
Sat 04:52:43 PM 37.8886 -88.0572 261° West 379 436 30,000  Level Indianapolis Center
Sat 04:53:45 PM 37.8664 -88.2156 260° West 379 436 30,000  Level Indianapolis Center
Sat 04:54:46 PM 37.8489 -88.3467 260° West 379 436 30,000 -443 Level Indianapolis Center
Sat 04:55:47 PM 37.8361 -88.4789 263° West 378 435 29,100 -927 Descending Indianapolis Center
Sat 04:56:49 PM 37.8239 -88.6083 263° West 371 427 28,100 -976 Descending Indianapolis Center
Sat 04:57:50 PM 37.7836 -88.7275 247° West 368 423 27,100 -1,270 Descending Indianapolis Center
Sat 04:59:06 PM 37.7392 -88.8583 247° West 362 417 25,200 -1,368 Descending Kansas City Center
Sat 05:00:06 PM 37.7347 -88.9783 267° West 361 415 24,000 -590 Descending Kansas City Center
Sat 05:01:08 PM 37.7631 -89.1181 284° West 348 400 24,000  Level Kansas City Center
Sat 05:02:10 PM 37.7875 -89.2383 284° West 350 403 24,000  Level Kansas City Center
Sat 05:03:10 PM 37.8147 -89.3581 286° West 353 406 24,000  Level Kansas City Center
Sat 05:04:14 PM 37.8433 -89.4856 286° West 353 406 24,000 -48 Level Kansas City Center
Sat 05:05:16 PM 37.8694 -89.6078 285° West 357 411 23,900 -1,180 Descending Kansas City Center
Sat 05:06:16 PM 37.8967 -89.7347 285° West 350 403 21,600 -2,225 Descending Kansas City Center
Sat 05:06:45 PM 37.9014 -89.7228 63° Northeast 332 382 20,600 -2,160 Descending FAA TRACON SMA TRACON (SMA)
Sat 05:07:06 PM 37.9106 -89.7661 285° West 331 381 19,800 -2,100 Descending FAA TRACON SMA TRACON (SMA)
Sat 05:07:25 PM 37.9178 -89.7997 285° West 331 381 19,200 -2,000 Descending FAA TRACON SMA TRACON (SMA)
Sat 05:07:45 PM 37.9256 -89.8328 287° West 326 375 18,500 -2,250 Descending FAA TRACON SMA TRACON (SMA)
Sat 05:08:05 PM 37.9344 -89.8747 285° West 323 372 17,700 -2,400 Descending FAA TRACON SMA TRACON (SMA)
Sat 05:08:25 PM 37.9478 -89.9047 299° West 319 367 16,900 -2,195 Descending FAA TRACON SMA TRACON (SMA)
Sat 05:08:46 PM 37.9714 -89.9247 326° Northwest 326 375 16,200 -2,400 Descending FAA TRACON SMA TRACON (SMA)
Sat 05:09:05 PM 38.0033 -89.9436 335° Northwest 331 381 15,300 -2,308 Descending FAA TRACON SMA TRACON (SMA)
Sat 05:09:25 PM 38.0286 -89.9589 335° Northwest 328 377 14,700 -1,950 Descending FAA TRACON SMA TRACON (SMA)
Sat 05:09:45 PM 38.0531 -89.9750 333° Northwest 323 372 14,000 -2,308 Descending FAA TRACON SMA TRACON (SMA)
Sat 05:10:04 PM 38.0842 -89.9900 339° North 313 360 13,200 -2,154 Descending FAA TRACON SMA TRACON (SMA)
Sat 05:10:24 PM 38.1081 -90.0039 335° Northwest 309 356 12,600 -1,902 Descending FAA TRACON SMA TRACON (SMA)
Sat 05:10:45 PM 38.1339 -90.0106 349° North 304 350 11,900 -2,250 Descending FAA TRACON SMA TRACON (SMA)
Sat 05:11:04 PM 38.1667 -90.0067 North 306 352 11,100 -1,950 Descending FAA TRACON SMA TRACON (SMA)
Sat 05:11:25 PM 38.1919 -90.0056 North 306 352 10,600 -1,000 Descending FAA TRACON SMA TRACON (SMA)
Sat 05:11:46 PM 38.2231 -90.0028 North 294 338 10,400 -600 Descending FAA TRACON SMA TRACON (SMA)
Sat 05:12:05 PM 38.2461 -90.0006 North 281 323 10,200 -923 Descending FAA TRACON SMA TRACON (SMA)
Sat 05:12:25 PM 38.2683 -89.9978 North 267 307 9,800 -1,500 Descending FAA TRACON SMA TRACON (SMA)
Sat 05:12:45 PM 38.2906 -89.9944 North 263 303 9,200 -1,902 Descending FAA TRACON SMA TRACON (SMA)
Sat 05:13:06 PM 38.3186 -89.9906 North 261 300 8,500 -1,756 Descending FAA TRACON SMA TRACON (SMA)
Sat 05:13:26 PM 38.3408 -89.9883 North 263 303 8,000 -1,650 Descending FAA TRACON SMA TRACON (SMA)
Sat 05:13:46 PM 38.3689 -89.9839 North 263 303 7,400 -1,650 Descending FAA TRACON SMA TRACON (SMA)
Sat 05:14:06 PM 38.3906 -89.9814 North 260 299 6,900 -1,385 Descending FAA TRACON SMA TRACON (SMA)
Sat 05:14:25 PM 38.4128 -89.9789 North 258 297 6,500 -1,538 Descending FAA TRACON SMA TRACON (SMA)
Sat 05:14:45 PM 38.4347 -89.9767 North 257 296 5,900 -1,650 Descending FAA TRACON SMA TRACON (SMA)
Sat 05:15:05 PM 38.4617 -89.9764 360° North 257 296 5,400 -1,171 Descending FAA TRACON SMA TRACON (SMA)
Sat 05:15:26 PM 38.4839 -89.9758 North 258 297 5,100 -545 Descending FAA TRACON SMA TRACON (SMA)
Sat 05:15:49 PM 38.5106 -89.9758 360° North 253 291 5,000 -140 Descending FAA TRACON SMA TRACON (SMA)
Sat 05:16:09 PM 38.5350 -89.9778 356° North 236 272 5,000  Level FAA TRACON SMA TRACON (SMA)
Sat 05:16:26 PM 38.5486 -89.9847 338° Northwest 230 265 5,000  Level FAA TRACON SMA TRACON (SMA)
Sat 05:16:45 PM 38.5650 -89.9967 330° Northwest 223 257 5,000  Level FAA TRACON SMA TRACON (SMA)
Sat 05:17:05 PM 38.5850 -90.0117 330° Northwest 219 252 5,000  Level FAA TRACON SMA TRACON (SMA)
Sat 05:17:25 PM 38.6008 -90.0239 329° Northwest 215 247 5,000 -450 Level FAA TRACON SMA TRACON (SMA)
Sat 05:17:45 PM 38.6150 -90.0461 309° West 214 246 4,700 -900 Descending FAA TRACON SMA TRACON (SMA)
Sat 05:18:05 PM 38.6258 -90.0658 305° West 216 249 4,400 -750 Descending FAA TRACON SMA TRACON (SMA)
Sat 05:18:25 PM 38.6350 -90.0850 301° West 209 241 4,200 -732 Descending FAA TRACON SMA TRACON (SMA)
Sat 05:18:46 PM 38.6450 -90.1061 301° West 184 212 3,900 -732 Descending FAA TRACON SMA TRACON (SMA)
Sat 05:19:06 PM 38.6525 -90.1206 304° West 166 191 3,700 -769 Descending FAA TRACON SMA TRACON (SMA)
Sat 05:19:25 PM 38.6589 -90.1339 302° West 147 169 3,400 -769 Descending FAA TRACON SMA TRACON (SMA)
Sat 05:19:45 PM 38.6650 -90.1461 303° West 137 158 3,200 -732 Descending FAA TRACON SMA TRACON (SMA)
Sat 05:20:06 PM 38.6728 -90.1614 303° West 131 151 2,900 -732 Descending FAA TRACON SMA TRACON (SMA)
Sat 05:20:26 PM 38.6786 -90.1731 303° West 129 148 2,700 -769 Descending FAA TRACON SMA TRACON (SMA)
Sat 05:20:45 PM 38.6861 -90.1886 302° West 132 152 2,400 -769 Descending FAA TRACON SMA TRACON (SMA)
Sat 05:21:05 PM 38.6919 -90.2008 301° West 133 153 2,200 -750 Descending FAA TRACON SMA TRACON (SMA)
Sat 05:21:25 PM 38.6986 -90.2131 305° West 135 155 1,900 -732 Descending FAA TRACON SMA TRACON (SMA)
Sat 05:21:46 PM 38.7056 -90.2281 301° West 130 150 1,700 -732 Descending FAA TRACON SMA TRACON (SMA)
Sat 05:22:06 PM 38.7117 -90.2400 303° West 129 148 1,400 -750 Descending FAA TRACON SMA TRACON (SMA)
Sat 05:22:26 PM 38.7178 -90.2519 303° West 130 150 1,200 -615 Descending FAA TRACON SMA TRACON (SMA)
Sat 05:22:45 PM 38.7253 -90.2669 303° West 130 150 1,000 -769 Descending FAA TRACON SMA TRACON (SMA)
Sat 05:23:05 PM 38.7308 -90.2789 301° West 129 148 700 -900 Descending FAA TRACON SMA TRACON (SMA)
Sat 05:25:00 PM 38.7487 -90.3700 322° Northwest  Level Estimated

Login

Don't have an account? Register now (free) for customized features, flight alerts, and more!